Photometre #347[NE_1.6] Amsterdam_Island AOT

File : 20220927_347.hum

27/09/2022,04:24:00,TEMP=11.9,BA=5.64,STAT.A=0.5,ExtBa=13.98
27/09/2022,04:27:08,TEMP=12.1,BA=5.64,STAT.A=0.5,ExtBa=13.94
27/09/2022,04:30:48,TEMP=12.2,BA=5.64,STAT.A=0.5,ExtBa=13.87
27/09/2022,04:35:09,TEMP=12.4,BA=5.64,STAT.A=0.5,ExtBa=13.84
27/09/2022,04:40:24,TEMP=12.9,BA=5.64,STAT.A=0.5,ExtBa=13.83
27/09/2022,04:46:52,TEMP=13.3,BA=5.64,STAT.A=0.5,ExtBa=13.87
27/09/2022,04:55:01,TEMP=13.9,BA=5.64,STAT.B=0.5,ExtBa=13.91
27/09/2022,05:03:41,TEMP=14.9,BA=5.48,STAT.A=0.5,ExtBa=12.76
27/09/2022,05:05:33,TEMP=15.3,BA=5.48,STAT.A=0.5,ExtBa=12.77
27/09/2022,05:08:10,TEMP=15.4,BA=5.48,STAT.A=0.5,ExtBa=12.82
27/09/2022,05:13:45,TEMP=15.5,BA=5.64,STAT.A=0.5,ExtBa=13.00
27/09/2022,05:20:08,TEMP=15.5,BA=5.60,STAT.C=0.5,ExtBa=13.19
27/09/2022,05:33:36,TEMP=16.1,BA=5.44,STAT.A=0.5,ExtBa=12.71
27/09/2022,05:36:14,TEMP=16.2,BA=5.44,STAT.A=0.5,ExtBa=12.82
27/09/2022,05:46:36,TEMP=15.6,BA=5.64,STAT.A=0.5,ExtBa=13.23
27/09/2022,05:59:16,TEMP=16.0,BA=5.64,STAT.A=0.5,ExtBa=13.47
27/09/2022,06:15:08,TEMP=16.1,BA=5.64,STAT.B=0.5,ExtBa=13.63
27/09/2022,06:25:12,TEMP=16.7,BA=5.44,STAT.D=0.5,ExtBa=12.97
27/09/2022,06:40:13,TEMP=17.0,BA=5.60,STAT.F,ExtBa=13.45
27/09/2022,06:55:12,TEMP=17.6,BA=5.44,STAT.D=0.5,ExtBa=12.86
27/09/2022,07:10:12,TEMP=18.0,BA=5.56,STAT.D=0.5,ExtBa=13.39
27/09/2022,07:25:12,TEMP=18.5,BA=5.64,STAT.D=0.5,ExtBa=13.55
27/09/2022,07:40:14,TEMP=19.6,BA=5.60,STAT.F,ExtBa=13.62
27/09/2022,07:57:43,TEMP=20.9,BA=5.44,STAT.D=0.5,ExtBa=13.05
27/09/2022,08:10:13,TEMP=21.1,BA=5.56,STAT.D=0.5,ExtBa=13.42
27/09/2022,08:25:13,TEMP=21.2,BA=5.64,STAT.D=0.5,ExtBa=13.58
27/09/2022,08:40:14,TEMP=21.8,BA=5.56,STAT.F,ExtBa=13.63
27/09/2022,08:55:13,TEMP=22.0,BA=5.64,STAT.D=0.5,ExtBa=13.45
27/09/2022,09:10:13,TEMP=21.5,BA=5.56,STAT.D=0.5,ExtBa=13.67
27/09/2022,09:25:13,TEMP=21.4,BA=5.64,STAT.D=0.5,ExtBa=13.78
27/09/2022,09:40:14,TEMP=21.4,BA=5.56,STAT.F,ExtBa=13.83
27/09/2022,09:55:13,TEMP=21.9,BA=5.64,STAT.D=0.5,ExtBa=13.54
27/09/2022,10:10:13,TEMP=22.4,BA=5.56,STAT.D=0.5,ExtBa=13.79
27/09/2022,10:25:13,TEMP=22.4,BA=5.64,STAT.D=0.5,ExtBa=13.86
27/09/2022,10:40:14,TEMP=22.3,BA=5.56,STAT.F,ExtBa=13.84
27/09/2022,10:55:13,TEMP=22.6,BA=5.64,STAT.D=0.5,ExtBa=13.56
27/09/2022,11:10:13,TEMP=22.4,BA=5.52,STAT.D=0.5,ExtBa=13.81
27/09/2022,11:25:13,TEMP=21.9,BA=5.64,STAT.D=0.5,ExtBa=13.85
27/09/2022,11:40:14,TEMP=21.9,BA=5.52,STAT.F,ExtBa=13.83
27/09/2022,11:55:12,TEMP=21.4,BA=5.40,STAT.D=0.5,ExtBa=12.97
27/09/2022,12:10:12,TEMP=21.5,BA=5.52,STAT.D=0.5,ExtBa=13.45
27/09/2022,12:25:12,TEMP=21.8,BA=5.64,STAT.D=0.5,ExtBa=13.62
27/09/2022,12:40:14,TEMP=22.1,BA=5.52,STAT.F,ExtBa=13.74
27/09/2022,12:55:12,TEMP=21.4,BA=5.40,STAT.D=0.5,ExtBa=12.95
27/09/2022,13:05:18,TEMP=21.3,BA=5.60,STAT.B=0.5,ExtBa=13.33
27/09/2022,13:21:10,TEMP=20.6,BA=5.64,STAT.A=0.5,ExtBa=13.20
27/09/2022,13:33:50,TEMP=20.9,BA=5.64,STAT.A=0.5,ExtBa=13.44
27/09/2022,13:44:12,TEMP=20.5,BA=5.64,STAT.A=0.5,ExtBa=13.52
27/09/2022,13:52:54,TEMP=20.0,BA=5.64,STAT.A=0.5,ExtBa=13.57
27/09/2022,14:00:18,TEMP=19.8,BA=5.64,STAT.C=0.5,ExtBa=13.61
27/09/2022,14:14:01,TEMP=18.9,BA=5.40,STAT.A=0.5,ExtBa=12.81
27/09/2022,14:16:49,TEMP=18.5,BA=5.40,STAT.A=0.5,ExtBa=12.79
27/09/2022,14:18:42,TEMP=18.3,BA=5.40,STAT.A=0.5,ExtBa=12.83
27/09/2022,14:21:31,TEMP=17.9,BA=5.40,STAT.A=0.5,ExtBa=12.94
27/09/2022,14:25:25,TEMP=17.5,BA=5.40,STAT.B=0.5,ExtBa=13.03
27/09/2022,14:33:34,TEMP=16.9,BA=5.64,STAT.A=0.5,ExtBa=13.22
27/09/2022,14:40:02,TEMP=16.4,BA=5.64,STAT.A=0.5,ExtBa=13.29
27/09/2022,14:49:43,TEMP=16.4,BA=5.48,STAT.A=0.5,ExtBa=13.41
27/09/2022,14:51:33,TEMP=16.8,BA=5.44,STAT.A=0.5,ExtBa=13.33
27/09/2022,14:53:22,TEMP=16.8,BA=5.44,STAT.A=0.5,ExtBa=13.28
27/09/2022,14:56:25,TEMP=16.6,BA=5.44,STAT.A=0.5,ExtBa=13.29